< < Back
Terminal Aerodrome Forecast


Current Version              Previous Versions:   1  2  3  4  5  6  7  8  9  

Terminal Aerodrome Forecast

583
FTUS42 KGSP 190900 AAC
TAFHKY
TAF AMD
KHKY 190933Z 1910/2006 06005KT P6SM SCT013 OVC026
      TEMPO 1910/1913 05003KT 5SM BR BKN013
     FM191400 09004KT P6SM BKN021
     FM191800 10004KT P6SM BKN050
     FM200300 04004KT P6SM BKN070=

Latest METAR

205
SAUS70 KWBC 191400 RRC
MTRHKY
METAR KHKY 191353Z 07005KT 7SM BKN007 BKN014 OVC026 20/18 A3017 RMK AO2
SLP199 T02000178


USA.gov is the U.S. government's official web portal to all federal, state and local government web resources and services.